createdAt,value
2019-03-08T00:02:25.208Z,12.43
2019-03-08T00:04:54.229Z,10.83
2019-03-08T00:07:23.238Z,14.60
2019-03-08T00:09:52.538Z,16.00
2019-03-08T00:12:21.574Z,11.97
2019-03-08T00:14:50.626Z,11.83
2019-03-08T00:17:19.781Z,12.70
2019-03-08T00:19:48.873Z,8.30
2019-03-08T00:22:17.885Z,13.10
2019-03-08T00:24:47.069Z,11.63
2019-03-08T00:27:16.196Z,13.37
2019-03-08T00:29:45.266Z,17.43
2019-03-08T00:32:14.344Z,9.90
2019-03-08T00:34:43.418Z,12.27
2019-03-08T00:37:12.451Z,5.50
2019-03-08T00:39:41.531Z,12.07
2019-03-08T00:42:10.601Z,17.67
2019-03-08T00:44:39.720Z,13.40
2019-03-08T00:47:08.796Z,17.63
2019-03-08T00:49:37.922Z,17.00
2019-03-08T00:52:07.012Z,19.57
2019-03-08T00:54:36.091Z,12.60
2019-03-08T00:57:05.156Z,15.30
2019-03-08T00:59:34.211Z,14.70
2019-03-08T01:02:03.355Z,16.57
2019-03-08T01:04:32.410Z,23.53
2019-03-08T01:07:01.620Z,23.80
2019-03-08T01:09:30.689Z,16.93
2019-03-08T01:11:59.770Z,20.47
2019-03-08T01:14:28.832Z,18.33
2019-03-08T01:16:57.997Z,25.87
2019-03-08T01:19:27.122Z,17.00
2019-03-08T01:21:56.384Z,25.73
2019-03-08T01:24:25.553Z,27.37
2019-03-08T01:26:54.615Z,24.07
2019-03-08T01:29:23.636Z,23.33
2019-03-08T01:31:53.483Z,19.80
2019-03-08T01:34:22.673Z,25.97
2019-03-08T01:36:51.683Z,22.70
2019-03-08T01:39:20.753Z,23.50
2019-03-08T01:41:49.773Z,22.73
2019-03-08T01:44:18.753Z,27.97
2019-03-08T01:46:47.851Z,23.63
2019-03-08T01:49:17.205Z,29.20
2019-03-08T01:51:46.298Z,27.97
2019-03-08T01:54:15.353Z,30.27
2019-03-08T01:56:44.424Z,23.90
2019-03-08T01:59:13.469Z,32.23
2019-03-08T02:01:42.533Z,32.57
2019-03-08T02:04:11.917Z,36.37
2019-03-08T02:06:40.943Z,36.87
2019-03-08T02:09:09.985Z,29.77
2019-03-08T02:11:39.065Z,30.50
2019-03-08T02:14:08.102Z,27.53
2019-03-08T02:16:37.115Z,30.90
2019-03-08T02:19:06.120Z,32.33
2019-03-08T02:21:35.183Z,27.27
2019-03-08T02:24:04.236Z,31.93
2019-03-08T02:26:33.301Z,35.63
2019-03-08T02:29:02.300Z,24.87
2019-03-08T02:31:31.480Z,33.47
2019-03-08T02:34:00.569Z,25.67
2019-03-08T02:36:29.600Z,22.83
2019-03-08T02:38:58.688Z,24.03
2019-03-08T02:41:27.815Z,18.57
2019-03-08T02:43:56.880Z,27.67
2019-03-08T02:46:26.036Z,22.47
2019-03-08T02:48:55.094Z,28.47
2019-03-08T02:51:24.410Z,31.20
2019-03-08T02:53:53.451Z,20.73
2019-03-08T02:56:22.528Z,29.43
2019-03-08T02:58:51.590Z,24.93
2019-03-08T03:01:20.761Z,31.73
2019-03-08T03:03:49.786Z,29.20
2019-03-08T03:06:18.802Z,28.40
2019-03-08T03:08:47.826Z,26.00
2019-03-08T03:11:16.853Z,39.23
2019-03-08T03:13:45.970Z,35.90
2019-03-08T03:16:14.977Z,24.97
2019-03-08T03:18:44.039Z,27.33
2019-03-08T03:21:13.152Z,29.53
2019-03-08T03:23:42.189Z,30.20
2019-03-08T03:26:11.220Z,25.67
2019-03-08T03:28:40.578Z,25.70
2019-03-08T03:31:09.607Z,35.97
2019-03-08T03:33:38.576Z,29.63
2019-03-08T03:36:07.607Z,28.13
2019-03-08T03:38:36.617Z,28.67
2019-03-08T03:41:05.711Z,38.90
2019-03-08T03:43:34.780Z,36.33
2019-03-08T03:46:03.789Z,32.17
2019-03-08T03:48:32.808Z,35.20
2019-03-08T03:51:01.909Z,30.20
2019-03-08T03:53:30.941Z,34.13
2019-03-08T03:55:59.912Z,32.50
2019-03-08T03:58:29.031Z,32.87
2019-03-08T04:00:58.156Z,39.77
2019-03-08T04:03:27.209Z,39.23
2019-03-08T04:05:56.310Z,27.77
2019-03-08T04:08:25.346Z,37.00
2019-03-08T04:10:54.709Z,30.03
2019-03-08T04:13:23.717Z,32.40
2019-03-08T04:15:52.840Z,27.23
2019-03-08T04:18:21.893Z,29.27
2019-03-08T04:20:50.913Z,32.63
2019-03-08T04:23:19.938Z,37.67
2019-03-08T04:25:48.956Z,26.33
2019-03-08T04:28:17.944Z,36.23
2019-03-08T04:30:47.028Z,31.67
2019-03-08T04:33:16.122Z,29.47
2019-03-08T04:35:46.728Z,28.80
2019-03-08T04:38:15.788Z,33.20
2019-03-08T04:40:44.862Z,30.33
2019-03-08T04:43:13.988Z,38.37
2019-03-08T04:45:43.066Z,29.77
2019-03-08T04:48:12.120Z,38.07
2019-03-08T04:50:41.120Z,28.30
2019-03-08T04:53:10.173Z,39.30
2019-03-08T04:55:39.252Z,35.23
2019-03-08T04:58:08.304Z,36.07
2019-03-08T05:00:37.363Z,29.50
2019-03-08T05:03:06.406Z,33.60
2019-03-08T05:05:35.399Z,31.00
2019-03-08T05:08:04.714Z,35.73
2019-03-08T05:10:33.833Z,27.73
2019-03-08T05:13:02.869Z,29.40
2019-03-08T05:15:31.908Z,26.10
2019-03-08T05:18:00.984Z,26.77
2019-03-08T05:20:30.032Z,27.50
2019-03-08T05:22:59.257Z,32.00
2019-03-08T05:25:28.232Z,36.53
2019-03-08T05:27:57.259Z,35.40
2019-03-08T05:30:26.336Z,24.67
2019-03-08T05:32:55.486Z,32.30
2019-03-08T05:35:24.626Z,27.83
2019-03-08T05:37:53.788Z,24.03
2019-03-08T05:40:22.920Z,29.67
2019-03-08T05:42:52.031Z,30.53
2019-03-08T05:45:21.084Z,27.67
2019-03-08T05:47:50.167Z,25.97
2019-03-08T05:50:19.249Z,25.93
2019-03-08T05:52:48.436Z,23.80
2019-03-08T05:55:17.538Z,24.80
2019-03-08T05:57:46.704Z,21.67
2019-03-08T06:00:17.612Z,30.17
2019-03-08T06:02:46.707Z,29.00
2019-03-08T06:05:15.746Z,25.73
2019-03-08T06:07:44.831Z,23.40
2019-03-08T06:10:30.288Z,32.03
2019-03-08T06:12:59.336Z,22.93
2019-03-08T06:15:29.466Z,23.43
2019-03-08T06:17:58.814Z,23.37
2019-03-08T06:20:27.883Z,17.93
2019-03-08T06:22:56.961Z,21.70
2019-03-08T06:25:26.043Z,23.87
2019-03-08T06:27:55.197Z,20.13
2019-03-08T06:30:24.290Z,16.47
2019-03-08T06:32:53.502Z,29.73
2019-03-08T06:35:22.545Z,29.57
2019-03-08T06:37:52.099Z,26.27
2019-03-08T06:40:21.091Z,20.23
2019-03-08T06:42:56.032Z,18.17
2019-03-08T06:45:25.487Z,27.17
2019-03-08T06:47:54.519Z,19.60
2019-03-08T06:50:23.563Z,26.57
2019-03-08T06:52:52.656Z,21.97
2019-03-08T06:55:21.729Z,22.07
2019-03-08T06:58:03.601Z,25.67
2019-03-08T07:01:00.643Z,18.10
2019-03-08T07:03:48.866Z,25.07
2019-03-08T07:06:17.999Z,17.03
2019-03-08T07:08:46.998Z,16.10
2019-03-08T07:11:15.989Z,17.07
2019-03-08T07:13:46.206Z,18.23
2019-03-08T07:16:15.226Z,17.13
2019-03-08T07:18:44.537Z,29.47
2019-03-08T07:21:32.612Z,17.40
2019-03-08T07:24:32.790Z,21.93
2019-03-08T07:27:33.033Z,11.87
2019-03-08T07:30:15.968Z,16.70
2019-03-08T07:33:19.162Z,14.50
2019-03-08T07:36:19.402Z,9.47
2019-03-08T07:39:16.405Z,10.83
2019-03-08T07:42:10.766Z,8.77
2019-03-08T07:44:48.206Z,10.30
2019-03-08T07:47:35.153Z,7.33
2019-03-08T07:50:14.490Z,11.13
2019-03-08T07:52:54.026Z,7.67
2019-03-08T07:55:40.827Z,12.43
2019-03-08T07:58:22.133Z,13.13
2019-03-08T08:01:01.977Z,6.73
2019-03-08T08:03:36.910Z,9.77
2019-03-08T08:06:28.035Z,10.53
2019-03-08T08:09:06.942Z,11.37
2019-03-08T08:11:52.825Z,9.97
2019-03-08T08:14:43.709Z,8.60
2019-03-08T08:17:26.462Z,12.47
2019-03-08T08:20:26.858Z,10.60
2019-03-08T08:23:14.990Z,9.43
2019-03-08T08:26:00.055Z,9.60
2019-03-08T08:28:50.114Z,14.03
2019-03-08T08:31:50.147Z,15.10
2019-03-08T08:34:47.331Z,10.63
2019-03-08T08:37:33.020Z,14.20
2019-03-08T08:40:30.186Z,17.80
2019-03-08T08:43:17.283Z,13.63
2019-03-08T08:46:08.206Z,15.23
2019-03-08T08:48:59.316Z,14.67
2019-03-08T08:51:46.074Z,19.77
2019-03-08T08:54:25.302Z,20.67
2019-03-08T08:57:01.118Z,16.67
2019-03-08T08:59:50.160Z,17.73
2019-03-08T09:02:41.090Z,15.67
2019-03-08T09:05:29.173Z,14.07
2019-03-08T09:08:16.236Z,17.97
2019-03-08T09:11:04.872Z,16.33
2019-03-08T09:13:51.822Z,22.17
2019-03-08T09:16:42.890Z,15.93
2019-03-08T09:19:25.279Z,11.80
2019-03-08T09:22:00.761Z,15.70
2019-03-08T09:24:48.900Z,15.10
2019-03-08T09:27:25.710Z,11.70
2019-03-08T09:30:28.756Z,13.17
2019-03-08T09:33:08.699Z,13.03
2019-03-08T09:36:05.733Z,18.83
2019-03-08T09:38:52.477Z,16.83
2019-03-08T09:41:26.946Z,17.90
2019-03-08T09:44:03.400Z,18.33
2019-03-08T09:46:54.548Z,18.17
2019-03-08T09:49:45.487Z,13.67
2019-03-08T09:52:32.520Z,14.70
2019-03-08T09:55:26.581Z,19.67
2019-03-08T09:58:17.577Z,13.37
2019-03-08T10:01:04.126Z,14.87
2019-03-08T10:03:47.514Z,16.27
2019-03-08T10:06:34.618Z,13.37
2019-03-08T10:09:28.286Z,14.73
2019-03-08T10:12:14.983Z,11.27
2019-03-08T10:15:12.193Z,11.70
2019-03-08T10:17:58.914Z,14.57
2019-03-08T10:20:36.647Z,13.97
2019-03-08T10:23:24.770Z,9.30
2019-03-08T10:26:11.247Z,11.40
2019-03-08T10:28:57.586Z,11.30
2019-03-08T10:31:34.382Z,15.03
2019-03-08T10:34:25.336Z,11.07
2019-03-08T10:37:22.447Z,12.07
2019-03-08T10:40:05.683Z,10.43
2019-03-08T10:42:46.579Z,16.20
2019-03-08T10:45:31.693Z,17.43
2019-03-08T10:48:22.858Z,14.90
2019-03-08T10:51:17.712Z,10.17
2019-03-08T10:54:08.857Z,12.60
2019-03-08T10:56:56.977Z,14.57
2019-03-08T10:59:31.363Z,14.80
2019-03-08T11:02:18.203Z,14.27
2019-03-08T11:04:59.063Z,13.90
2019-03-08T11:07:53.926Z,11.30
2019-03-08T11:10:33.679Z,9.70
2019-03-08T11:13:43.226Z,9.70
2019-03-08T11:16:22.191Z,11.73
2019-03-08T11:19:08.468Z,9.90
2019-03-08T11:21:50.288Z,14.20
2019-03-08T11:24:53.718Z,13.43
2019-03-08T11:27:33.900Z,10.80
2019-03-08T11:30:14.009Z,9.03
2019-03-08T11:32:48.904Z,9.90
2019-03-08T11:35:27.417Z,12.23
2019-03-08T11:38:24.714Z,9.77
2019-03-08T11:41:06.631Z,7.20
2019-03-08T11:44:03.734Z,13.30
2019-03-08T11:46:38.802Z,13.23
2019-03-08T11:49:26.928Z,10.37
2019-03-08T11:52:08.145Z,9.93
2019-03-08T11:54:55.116Z,10.63
2019-03-08T11:57:58.448Z,9.07
2019-03-08T12:00:46.563Z,10.93
2019-03-08T12:03:27.922Z,7.27
2019-03-08T12:06:12.214Z,9.27
2019-03-08T12:09:00.299Z,7.37
2019-03-08T12:11:47.174Z,11.20
2019-03-08T12:14:28.696Z,11.77
2019-03-08T12:17:17.654Z,8.80
2019-03-08T12:19:52.405Z,9.77
2019-03-08T12:22:43.514Z,7.43
2019-03-08T12:25:17.771Z,10.30
2019-03-08T12:28:04.570Z,6.97
2019-03-08T12:30:59.795Z,10.23
2019-03-08T12:33:46.475Z,14.63
2019-03-08T12:36:29.046Z,7.47
2019-03-08T12:39:15.934Z,9.60
2019-03-08T12:41:51.065Z,8.97
2019-03-08T12:44:29.374Z,7.57
2019-03-08T12:47:16.133Z,5.57
2019-03-08T12:49:58.182Z,8.80
2019-03-08T12:52:44.762Z,5.17
2019-03-08T12:55:31.432Z,4.03
2019-03-08T12:58:18.329Z,7.30
2019-03-08T13:00:56.567Z,10.40
2019-03-08T13:04:03.131Z,5.80
2019-03-08T13:06:56.899Z,8.93
2019-03-08T13:09:32.238Z,8.37
2019-03-08T13:12:01.303Z,6.70
2019-03-08T13:14:30.264Z,8.00
2019-03-08T13:16:59.266Z,5.40
2019-03-08T13:19:29.693Z,8.13
2019-03-08T13:21:58.754Z,6.67
2019-03-08T13:24:27.802Z,8.83
2019-03-08T13:26:56.927Z,7.23
2019-03-08T13:29:25.923Z,8.33
2019-03-08T13:31:54.913Z,4.30
2019-03-08T13:34:23.876Z,6.87
2019-03-08T13:36:52.905Z,5.97
2019-03-08T13:39:21.949Z,7.27
2019-03-08T13:41:50.978Z,8.93
2019-03-08T13:44:20.038Z,6.43
2019-03-08T13:46:49.079Z,7.23
2019-03-08T13:49:20.030Z,5.60
2019-03-08T13:51:48.930Z,7.43
2019-03-08T13:54:17.998Z,7.60
2019-03-08T13:56:47.163Z,7.43
2019-03-08T13:59:16.233Z,2.60
2019-03-08T14:01:45.363Z,6.10
2019-03-08T14:04:14.536Z,4.37
2019-03-08T14:06:43.623Z,5.77
2019-03-08T14:09:12.664Z,6.73
2019-03-08T14:11:41.678Z,7.17
2019-03-08T14:14:10.727Z,7.53
2019-03-08T14:16:39.769Z,3.80
2019-03-08T14:19:08.814Z,7.43
2019-03-08T14:21:37.788Z,5.73
2019-03-08T14:24:06.819Z,4.33
2019-03-08T14:26:35.827Z,7.57
2019-03-08T14:29:04.953Z,7.60
2019-03-08T14:32:05.198Z,5.47
2019-03-08T14:34:34.384Z,6.40
2019-03-08T14:37:03.462Z,8.90
2019-03-08T14:39:32.564Z,6.83
2019-03-08T14:42:23.643Z,7.10
2019-03-08T14:45:17.710Z,5.33
2019-03-08T14:47:49.216Z,8.93
2019-03-08T14:50:18.286Z,6.17
2019-03-08T14:52:47.367Z,4.17
2019-03-08T14:55:19.111Z,5.33
2019-03-08T14:57:47.594Z,7.33
2019-03-08T15:00:21.239Z,4.43
2019-03-08T15:02:51.294Z,7.13
2019-03-08T15:05:20.503Z,5.30
2019-03-08T15:07:49.580Z,9.27
2019-03-08T15:10:19.631Z,5.87
2019-03-08T15:12:49.467Z,5.50
2019-03-08T15:15:18.721Z,5.63
2019-03-08T15:17:49.744Z,6.10
2019-03-08T15:20:18.763Z,7.37
2019-03-08T15:22:48.145Z,7.63
2019-03-08T15:25:17.247Z,7.00
2019-03-08T15:27:46.307Z,11.70
2019-03-08T15:30:16.530Z,6.47
2019-03-08T15:32:45.732Z,4.40
2019-03-08T15:35:15.244Z,9.57
2019-03-08T15:37:44.758Z,9.90
2019-03-08T15:40:16.170Z,6.27
2019-03-08T15:42:45.225Z,8.40
2019-03-08T15:45:14.295Z,7.37
2019-03-08T15:47:43.398Z,20.40
2019-03-08T15:50:14.272Z,13.20
2019-03-08T15:52:43.345Z,11.07
2019-03-08T15:55:12.392Z,10.10
2019-03-08T15:57:41.472Z,7.93
2019-03-08T16:00:16.510Z,14.30
2019-03-08T16:02:45.647Z,8.27
2019-03-08T16:05:14.779Z,9.50
2019-03-08T16:07:43.865Z,10.13
2019-03-08T16:10:13.661Z,6.70
2019-03-08T16:12:43.020Z,7.50
2019-03-08T16:15:12.151Z,9.77
2019-03-08T16:17:41.237Z,9.70
2019-03-08T16:20:11.479Z,7.37
2019-03-08T16:22:40.555Z,8.97
2019-03-08T16:25:11.337Z,8.87
2019-03-08T16:27:40.399Z,7.23
2019-03-08T16:30:18.622Z,6.70
2019-03-08T16:32:54.770Z,5.87
2019-03-08T16:35:24.029Z,6.50
2019-03-08T16:38:12.841Z,6.20
2019-03-08T16:41:00.935Z,8.13
2019-03-08T16:43:42.029Z,7.97
2019-03-08T16:46:18.821Z,6.70
2019-03-08T16:49:04.736Z,7.83
2019-03-08T16:51:41.885Z,8.73
2019-03-08T16:54:28.698Z,7.33
2019-03-08T16:57:21.207Z,8.50
2019-03-08T17:00:00.431Z,10.93
2019-03-08T17:02:37.591Z,7.57
2019-03-08T17:05:24.209Z,5.93
2019-03-08T17:08:16.988Z,10.17
2019-03-08T17:10:55.883Z,6.50
2019-03-08T17:13:47.918Z,7.80
2019-03-08T17:16:25.340Z,8.60
2019-03-08T17:19:32.090Z,6.30
2019-03-08T17:22:14.294Z,7.13
2019-03-08T17:25:09.486Z,4.93
2019-03-08T17:27:46.494Z,12.40
2019-03-08T17:30:24.362Z,10.80
2019-03-08T17:33:06.059Z,9.40
2019-03-08T17:35:53.492Z,7.43
2019-03-08T17:38:50.545Z,10.43
2019-03-08T17:41:36.145Z,8.40
2019-03-08T17:44:27.537Z,6.70
2019-03-08T17:47:12.334Z,7.53
2019-03-08T17:49:58.916Z,10.20
2019-03-08T17:52:59.190Z,8.57
2019-03-08T17:55:36.338Z,7.83
2019-03-08T17:58:33.519Z,8.97
2019-03-08T18:01:37.013Z,11.10
2019-03-08T18:04:28.314Z,11.13
2019-03-08T18:07:09.535Z,11.43
2019-03-08T18:10:09.763Z,7.47
2019-03-08T18:13:04.020Z,11.53
2019-03-08T18:15:50.810Z,13.97
2019-03-08T18:18:51.037Z,11.10
2019-03-08T18:21:31.009Z,9.10
2019-03-08T18:24:27.889Z,10.37
2019-03-08T18:27:16.051Z,9.63
2019-03-08T18:30:04.351Z,13.20
2019-03-08T18:32:52.443Z,8.93
2019-03-08T18:35:39.541Z,10.83
2019-03-08T18:38:26.086Z,7.57
2019-03-08T18:41:13.079Z,9.33
2019-03-08T18:43:56.345Z,8.70
2019-03-08T18:46:42.839Z,14.43
2019-03-08T18:49:29.800Z,11.30
2019-03-08T18:52:17.950Z,12.33
2019-03-08T18:54:57.545Z,8.37
2019-03-08T18:57:41.218Z,13.57
2019-03-08T19:00:10.006Z,9.37
2019-03-08T19:03:03.149Z,11.40
2019-03-08T19:05:44.288Z,11.50
2019-03-08T19:08:43.481Z,12.60
2019-03-08T19:11:30.296Z,13.13
2019-03-08T19:14:36.745Z,14.17
2019-03-08T19:17:21.766Z,14.00
2019-03-08T19:20:19.221Z,13.47
2019-03-08T19:23:16.566Z,10.77
2019-03-08T19:26:04.619Z,10.77
2019-03-08T19:28:46.023Z,13.17
2019-03-08T19:31:32.805Z,17.17
2019-03-08T19:34:19.633Z,11.53
2019-03-08T19:37:15.546Z,9.57
2019-03-08T19:40:06.455Z,26.70
2019-03-08T19:43:09.816Z,10.47
2019-03-08T19:46:03.935Z,12.53
2019-03-08T19:48:58.174Z,13.20
2019-03-08T19:51:49.323Z,12.27
2019-03-08T19:54:40.283Z,14.10
2019-03-08T19:57:25.012Z,9.70
2019-03-08T20:00:25.067Z,11.57
2019-03-08T20:03:10.085Z,9.53
2019-03-08T20:06:04.339Z,10.37
2019-03-08T20:08:54.001Z,15.00
2019-03-08T20:11:48.331Z,13.07
2019-03-08T20:14:32.222Z,10.53
2019-03-08T20:17:35.580Z,11.63
2019-03-08T20:20:22.188Z,11.40
2019-03-08T20:23:00.489Z,8.27
2019-03-08T20:25:48.583Z,10.57
2019-03-08T20:28:45.578Z,5.43
2019-03-08T20:31:25.203Z,5.93
2019-03-08T20:34:00.396Z,8.03
2019-03-08T20:36:45.937Z,7.80
2019-03-08T20:39:32.688Z,6.40
2019-03-08T20:42:09.770Z,3.60
2019-03-08T20:44:42.940Z,3.70
2019-03-08T20:47:15.503Z,4.90
2019-03-08T20:49:44.514Z,9.63
2019-03-08T20:52:15.036Z,7.83
2019-03-08T20:54:44.044Z,5.20
2019-03-08T20:57:13.153Z,9.37
2019-03-08T20:59:42.195Z,4.77
2019-03-08T21:02:11.334Z,5.87
2019-03-08T21:04:40.473Z,9.60
2019-03-08T21:07:09.474Z,10.57
2019-03-08T21:09:38.488Z,10.03
2019-03-08T21:12:07.464Z,6.93
2019-03-08T21:14:36.467Z,8.17
2019-03-08T21:17:05.568Z,4.20
2019-03-08T21:19:34.891Z,4.13
2019-03-08T21:22:03.860Z,4.33
2019-03-08T21:24:32.824Z,3.73
2019-03-08T21:27:01.926Z,3.83
2019-03-08T21:29:30.989Z,4.53
2019-03-08T21:32:00.018Z,5.90
2019-03-08T21:34:29.046Z,5.70
2019-03-08T21:36:58.108Z,11.10
2019-03-08T21:39:27.137Z,7.33
2019-03-08T21:41:56.236Z,5.73
2019-03-08T21:44:25.347Z,6.00
2019-03-08T21:46:54.414Z,7.47
2019-03-08T21:49:23.490Z,5.40
2019-03-08T21:51:52.557Z,5.67
2019-03-08T21:54:21.583Z,3.57
2019-03-08T21:56:50.619Z,7.00
2019-03-08T21:59:19.867Z,5.30
2019-03-08T22:01:48.962Z,5.43
2019-03-08T22:04:26.770Z,4.73
2019-03-08T22:06:55.845Z,5.30
2019-03-08T22:09:33.940Z,10.37
2019-03-08T22:12:04.040Z,3.47
2019-03-08T22:14:33.178Z,4.73
2019-03-08T22:17:02.313Z,4.87
2019-03-08T22:19:31.354Z,5.63
2019-03-08T22:22:00.488Z,3.43
2019-03-08T22:24:29.580Z,4.57
2019-03-08T22:26:58.586Z,6.53
2019-03-08T22:29:27.621Z,4.13
2019-03-08T22:31:56.753Z,4.27
2019-03-08T22:34:25.745Z,2.70
2019-03-08T22:36:54.776Z,3.17
2019-03-08T22:39:23.830Z,4.07
2019-03-08T22:41:52.836Z,4.57
2019-03-08T22:44:21.841Z,5.03
2019-03-08T22:46:50.895Z,7.17
2019-03-08T22:49:19.942Z,5.23
2019-03-08T22:51:48.960Z,5.00
2019-03-08T22:54:17.990Z,9.33
2019-03-08T22:56:46.914Z,4.33
2019-03-08T22:59:15.927Z,5.40
2019-03-08T23:01:48.065Z,5.37
2019-03-08T23:04:17.109Z,9.90
2019-03-08T23:06:46.150Z,7.00
2019-03-08T23:09:16.462Z,10.67
2019-03-08T23:11:45.696Z,10.77
2019-03-08T23:14:14.743Z,9.33
2019-03-08T23:16:43.715Z,8.63
2019-03-08T23:19:12.751Z,5.40
2019-03-08T23:21:41.798Z,7.33
2019-03-08T23:24:10.832Z,7.97
2019-03-08T23:26:53.973Z,8.93
2019-03-08T23:29:30.351Z,9.30
2019-03-08T23:32:06.351Z,9.03
2019-03-08T23:34:35.510Z,10.00
2019-03-08T23:37:04.536Z,6.70
2019-03-08T23:39:33.580Z,8.47
2019-03-08T23:42:02.627Z,10.33
2019-03-08T23:44:31.760Z,9.17
2019-03-08T23:47:01.045Z,9.60
2019-03-08T23:49:30.107Z,5.40
2019-03-08T23:52:18.415Z,6.03
2019-03-08T23:54:47.473Z,6.13
2019-03-08T23:57:16.631Z,6.43
2019-03-08T23:59:45.703Z,9.53
